Latest Weather Observations for Kyabram

IDV60801

Issued at 7:32 pm EST Friday 1 July 2016 (issued every 30 minutes, with the page automatically refreshed every 10 minutes)

About weather observations | Map of weather stations | Latest weather observations for VIC | Other Formats
Station Details ID: 080091 Name: KYABRAM Lat: -36.34 Lon: 145.06 Height: 105.0 m
Data from the previous 72 hours. | See also: Recent months at Kyabram
Date/Time
EST
Temp
°C
App
Temp
°C
Dew
Point
°C
Rel
Hum
%
Delta-T
°C
Wind Press
QNH
hPa
Press
MSL
hPa
Rain since
9am
mm
Dir  Spd
km/h
Gust
km/h
Spd
kts
Gust
kts
01/07:30pm 9.5 8.7 6.6 82 1.4 CALM 0 0 0 0 - - 0.0
01/07:00pm 9.7 8.6 6.8 82 1.4 WNW 2 7 1 4 - - 0.0
01/06:30pm 10.4 9.1 6.0 74 2.0 W 2 9 1 5 - - 0.0
01/06:00pm 10.5 8.7 5.5 71 2.3 WSW 4 9 2 5 - - 0.0
01/05:30pm 10.5 9.5 5.7 72 2.2 CALM 0 0 0 0 - - 0.0
01/05:00pm 10.6 9.6 5.6 71 2.3 CALM 0 0 0 0 - - 0.0
01/04:30pm 11.0 9.9 5.3 68 2.6 CALM 0 0 0 0 - - 0.0
01/04:00pm 11.2 8.4 5.1 66 2.8 SW 9 17 5 9 - - 0.0
01/03:30pm 12.4 9.0 5.8 64 3.1 WSW 13 19 7 10 - - 0.0
01/03:00pm 12.3 9.6 5.7 64 3.1 WSW 9 19 5 10 - - 0.0
01/02:30pm 12.4 9.5 6.7 68 2.7 WSW 11 17 6 9 - - 0.0
01/02:00pm 12.2 8.8 6.0 66 2.9 WSW 13 26 7 14 - - 0.0
01/01:30pm 12.8 8.5 6.8 67 2.9 WSW 19 30 10 16 - - 0.0
01/01:00pm 12.7 9.3 7.8 72 2.4 WSW 15 28 8 15 - - 0.0
01/12:30pm 12.4 8.6 7.5 72 2.4 WSW 17 30 9 16 - - 0.0
01/12:00pm 12.4 9.1 8.1 75 2.1 SW 15 26 8 14 - - 0.0
01/11:30am 12.3 9.3 7.8 74 2.2 SW 13 24 7 13 - - 0.0
01/11:00am 11.9 8.8 8.9 82 1.5 WSW 15 28 8 15 - - 0.0
01/10:30am 11.2 7.6 8.4 83 1.4 WSW 17 24 9 13 - - 0.0
01/10:00am 10.9 7.8 8.7 86 1.1 WSW 15 24 8 13 - - 0.0
01/09:30am 9.8 6.9 8.2 90 0.8 W 13 22 7 12 - - 0.0
01/09:00am 9.0 6.8 7.9 93 0.5 W 9 17 5 9 - - 7.2
01/08:30am 7.6 5.3 7.5 99 0.0 W 9 15 5 8 - - 7.2
01/08:00am 7.2 4.8 7.1 99 0.0 W 9 15 5 8 - - 7.2
01/07:30am 7.5 4.7 7.1 97 0.2 W 11 19 6 10 - - 7.2
01/07:00am 7.8 5.4 7.1 95 0.3 W 9 17 5 9 - - 7.2
01/06:30am 8.0 5.6 7.2 95 0.4 W 9 15 5 8 - - 7.2
01/06:00am 8.0 5.3 7.2 95 0.4 W 11 19 6 10 - - 7.2
01/05:30am 8.1 5.4 7.2 94 0.4 W 11 17 6 9 - - 7.2
01/05:00am 8.0 5.2 7.1 94 0.4 W 11 19 6 10 - - 7.2
01/04:30am 7.9 5.2 7.3 96 0.3 W 11 19 6 10 - - 7.2
01/04:00am 7.5 4.7 7.1 97 0.2 W 11 15 6 8 - - 7.2
01/03:30am 7.4 3.9 7.0 97 0.2 W 15 26 8 14 - - 7.2
01/03:00am 7.6 3.9 6.5 93 0.5 W 15 24 8 13 - - 7.2
01/02:30am 7.6 3.5 6.4 92 0.6 WNW 17 30 9 16 - - 7.0
01/02:00am 7.6 3.5 6.4 92 0.6 WNW 17 33 9 18 - - 7.0
01/01:30am 7.3 2.8 6.2 93 0.5 WNW 19 33 10 18 - - 7.0
01/01:00am 7.0 2.8 5.8 92 0.5 NW 17 30 9 16 - - 7.0
01/12:30am 6.8 3.0 5.7 93 0.5 NW 15 32 8 17 - - 7.0
01/12:00am 6.8 3.4 5.7 93 0.5 NW 13 20 7 11 - - 7.0
 
Date/Time
EST
Temp
°C
App
Temp
°C
Dew
Point
°C
Rel
Hum
%
Delta-T
°C
Wind Press
QNH
hPa
Press
MSL
hPa
Rain since
9am
mm
Dir  Spd
km/h
Gust
km/h
Spd
kts
Gust
kts
30/11:30pm 6.7 3.4 6.3 97 0.2 NW 13 22 7 12 - - 7.0
30/11:00pm 6.6 3.2 6.0 96 0.3 NW 13 22 7 12 - - 7.0
30/10:30pm 6.9 3.9 5.8 93 0.5 NW 11 19 6 10 - - 6.0
30/10:00pm 6.4 3.3 5.7 95 0.3 NW 11 19 6 10 - - 6.0
30/09:30pm 6.7 3.3 5.8 94 0.4 NW 13 20 7 11 - - 6.0
30/09:00pm 6.7 3.7 5.8 94 0.4 NW 11 20 6 11 - - 6.0
30/08:30pm 7.1 3.4 6.2 94 0.4 NW 15 22 8 12 - - 6.0
30/08:00pm 7.0 3.0 6.7 98 0.1 NNW 17 22 9 12 - - 6.0
30/07:30pm 6.8 3.5 6.4 97 0.2 NNW 13 20 7 11 - - 6.0
30/07:00pm 7.2 4.4 7.1 99 0.0 NNW 11 15 6 8 - - 6.0
30/06:30pm 7.2 4.8 7.1 99 0.0 NW 9 13 5 7 - - 6.0
30/06:00pm 7.4 5.6 7.3 99 0.0 NW 6 13 3 7 - - 5.8
30/05:30pm 7.8 4.0 7.4 97 0.2 W 17 26 9 14 - - 5.0
30/05:00pm 8.9 6.2 8.8 99 0.0 N 13 17 7 9 - - 2.6
30/04:30pm 8.9 5.4 8.6 98 0.1 N 17 28 9 15 - - 1.6
30/04:00pm 9.0 5.5 8.7 98 0.1 N 17 22 9 12 - - 1.6
30/03:30pm 9.2 5.6 8.3 94 0.4 N 17 26 9 14 - - 0.8
30/03:00pm 9.4 5.8 8.2 92 0.6 N 17 26 9 14 - - 0.8
30/02:30pm 9.7 5.3 7.6 87 1.0 N 20 32 11 17 - - 0.8
30/02:00pm 9.3 5.2 7.7 90 0.8 N 19 26 10 14 - - 0.6
30/01:30pm 9.0 5.2 7.5 90 0.7 N 17 30 9 16 - - 0.4
30/01:00pm 8.9 4.6 7.2 89 0.8 N 19 32 10 17 - - 0.2
30/12:30pm 9.1 5.1 6.7 85 1.1 NNE 17 28 9 15 - - 0.0
30/12:00pm 8.6 4.6 6.6 87 0.9 NNE 17 28 9 15 - - 0.0
30/11:30am 8.2 4.2 6.5 89 0.8 NNE 17 28 9 15 - - 0.0
30/11:00am 8.1 4.0 6.4 89 0.8 N 17 26 9 14 - - 0.0
30/10:30am 8.3 3.8 6.3 87 0.9 N 19 28 10 15 - - 0.0
30/10:00am 8.2 3.7 6.3 88 0.9 N 19 28 10 15 - - 0.0
30/09:30am 7.7 3.5 5.8 88 0.9 N 17 26 9 14 - - 0.0
30/09:00am 7.5 2.9 5.8 89 0.8 NNE 19 26 10 14 - - 0.2
30/08:30am 7.2 3.0 5.7 90 0.7 NNE 17 26 9 14 - - 0.2
30/08:00am 6.8 2.6 5.6 92 0.5 NNE 17 24 9 13 - - 0.2
30/07:30am 6.7 3.2 5.5 92 0.5 NNE 13 20 7 11 - - 0.2
30/07:00am 6.7 2.9 5.7 93 0.4 NNE 15 22 8 12 - - 0.2
30/06:30am 6.9 3.1 5.7 92 0.5 N 15 22 8 12 - - 0.2
30/06:00am 7.0 3.2 5.8 92 0.5 NNE 15 22 8 12 - - 0.2
30/05:30am 7.0 3.2 5.8 92 0.5 NNE 15 24 8 13 - - 0.2
30/05:00am 7.0 3.2 5.9 93 0.5 NNE 15 20 8 11 - - 0.2
30/04:30am 7.1 3.4 6.2 94 0.4 NNE 15 22 8 12 - - 0.0
30/04:00am 7.2 4.3 6.5 95 0.3 NNE 11 17 6 9 - - 0.0
30/03:30am 7.1 4.2 6.5 96 0.3 NNE 11 17 6 9 - - 0.0
30/03:00am 7.1 4.6 6.5 96 0.3 NNE 9 13 5 7 - - 0.0
30/02:30am 6.9 5.3 6.3 96 0.3 N 4 11 2 6 - - 0.0
30/02:00am 7.0 4.9 6.7 98 0.1 NE 7 11 4 6 - - 0.0
30/01:30am 6.6 5.4 6.5 99 0.0 NE 2 9 1 5 - - 0.0
30/01:00am 6.8 5.2 6.5 98 0.1 NNE 4 7 2 4 - - 0.0
30/12:30am 6.9 4.8 6.6 98 0.1 N 7 9 4 5 - - 0.0
30/12:00am 6.8 4.7 6.7 99 0.0 NNE 7 13 4 7 - - 0.0
 
Date/Time
EST
Temp
°C
App
Temp
°C
Dew
Point
°C
Rel
Hum
%
Delta-T
°C
Wind Press
QNH
hPa
Press
MSL
hPa
Rain since
9am
mm
Dir  Spd
km/h
Gust
km/h
Spd
kts
Gust
kts
29/11:30pm 5.8 4.8 5.5 98 0.1 CALM 0 0 0 0 - - 0.0
29/11:00pm 6.2 3.9 5.6 96 0.3 NNE 7 11 4 6 - - 0.0
29/10:30pm 7.0 4.4 6.1 94 0.4 NNE 9 13 5 7 - - 0.0
29/10:00pm 7.2 4.6 6.3 94 0.4 NNE 9 13 5 7 - - 0.0
29/09:30pm 7.2 4.5 5.7 90 0.7 NNE 9 13 5 7 - - 0.0
29/09:00pm 7.5 5.3 6.0 90 0.7 NNE 7 11 4 6 - - 0.0
29/08:30pm 8.2 5.6 6.3 88 0.9 NNE 9 13 5 7 - - 0.0
29/08:00pm 8.3 5.8 6.6 89 0.8 NNE 9 17 5 9 - - 0.0
29/07:30pm 8.0 5.8 6.1 88 0.9 NE 7 9 4 5 - - 0.0
29/07:00pm 8.6 7.1 6.6 87 0.9 NNE 4 11 2 6 - - 0.0
29/06:30pm 8.5 7.2 5.8 83 1.2 NNE 2 9 1 5 - - 0.0
29/06:00pm 9.8 7.3 6.5 80 1.5 NNE 9 13 5 7 - - 0.0
29/05:30pm 10.6 8.2 6.9 78 1.8 NNE 9 13 5 7 - - 0.0
29/05:00pm 11.4 9.4 7.1 75 2.1 NNE 7 11 4 6 - - 0.0
29/04:30pm 12.2 9.8 7.1 71 2.5 N 9 15 5 8 - - 0.0
29/04:00pm 12.9 9.8 7.1 68 2.8 N 13 22 7 12 - - 0.0
29/03:30pm 13.0 9.1 7.0 67 2.9 N 17 24 9 13 - - 0.0
29/03:00pm 13.4 9.6 7.4 67 2.9 N 17 22 9 12 - - 0.0
29/02:30pm 14.0 10.2 7.5 65 3.2 N 17 22 9 12 - - 0.0
29/02:00pm 13.9 10.2 7.9 67 3.0 NNW 17 22 9 12 - - 0.0
29/01:30pm 14.2 11.6 7.7 65 3.2 NNW 11 20 6 11 - - 0.0
29/01:00pm 13.9 11.4 8.3 69 2.8 NNW 11 17 6 9 - - 0.0
29/12:30pm 13.5 10.2 6.6 63 3.3 NW 13 20 7 11 - - 0.0
29/12:00pm 13.4 11.2 7.8 69 2.8 NW 9 15 5 8 - - 0.0
29/11:30am 12.3 10.8 6.6 68 2.7 N 4 15 2 8 - - 0.0
29/11:00am 12.2 11.8 8.3 77 1.9 CALM 0 0 0 0 - - 0.0
29/10:30am 11.3 10.7 7.6 78 1.8 CALM 0 0 0 0 - - 0.0
29/10:00am 10.9 9.0 7.4 79 1.7 N 7 11 4 6 - - 0.0
29/09:30am 9.0 7.1 7.6 91 0.7 N 7 9 4 5 - - 0.0
29/09:00am 8.7 6.8 7.5 92 0.6 N 7 11 4 6 - - 0.6
29/08:30am 8.3 7.9 8.2 99 0.0 CALM 0 0 0 0 - - 0.6
29/08:00am 7.5 6.9 7.4 99 0.0 CALM 0 0 0 0 - - 0.6
29/07:30am 7.6 7.0 7.5 99 0.0 CALM 0 0 0 0 - - 0.6
29/07:00am 7.8 7.3 7.7 99 0.0 CALM 0 0 0 0 - - 0.6
29/06:30am 7.9 7.4 7.8 99 0.0 CALM 0 0 0 0 - - 0.6
29/06:00am 7.8 7.3 7.7 99 0.0 CALM 0 0 0 0 - - 0.6
29/05:30am 7.8 7.3 7.7 99 0.0 CALM 0 0 0 0 - - 0.6
29/05:00am 7.7 7.1 7.6 99 0.0 CALM 0 0 0 0 - - 0.6
29/04:30am 7.7 7.1 7.6 99 0.0 CALM 0 0 0 0 - - 0.6
29/04:00am 7.6 7.0 7.5 99 0.0 CALM 0 0 0 0 - - 0.6
29/03:30am 7.6 7.0 7.5 99 0.0 CALM 0 0 0 0 - - 0.6
29/03:00am 7.6 7.0 7.5 99 0.0 CALM 0 0 0 0 - - 0.6
29/02:30am 7.8 7.3 7.7 99 0.0 CALM 0 0 0 0 - - 0.6
29/02:00am 8.6 8.3 8.5 99 0.0 CALM 0 0 0 0 - - 0.6
29/01:30am 8.5 8.2 8.5 100 0.0 CALM 0 0 0 0 - - 0.6
29/01:00am 8.7 8.4 8.7 100 0.0 CALM 0 0 0 0 - - 0.6
29/12:30am 8.2 7.8 8.2 100 0.0 CALM 0 0 0 0 - - 0.6
29/12:00am 8.4 8.0 8.4 100 0.0 CALM 0 0 0 0 - - 0.6
 
Date/Time
EST
Temp
°C
App
Temp
°C
Dew
Point
°C
Rel
Hum
%
Delta-T
°C
Wind Press
QNH
hPa
Press
MSL
hPa
Rain since
9am
mm
Dir  Spd
km/h
Gust
km/h
Spd
kts
Gust
kts
28/11:30pm 8.7 8.4 8.7 100 0.0 CALM 0 0 0 0 - - 0.6
28/11:00pm 8.7 8.4 8.7 100 0.0 CALM 0 0 0 0 - - 0.6
28/10:30pm 8.8 8.5 8.8 100 0.0 CALM 0 0 0 0 - - 0.6
28/10:00pm 8.6 8.3 8.6 100 0.0 CALM 0 0 0 0 - - 0.6
28/09:30pm 8.7 8.4 8.6 99 0.0 CALM 0 0 0 0 - - 0.6
28/09:00pm 8.3 7.9 8.2 99 0.0 CALM 0 0 0 0 - - 0.6
28/08:30pm 8.7 8.4 8.6 99 0.0 CALM 0 0 0 0 - - 0.6
28/08:00pm 9.2 9.0 9.1 99 0.0 CALM 0 0 0 0 - - 0.6

Other Formats:

Comma delimited format used in spreadsheet applications
http://www.bom.gov.au/fwo/IDV60801/IDV60801.95833.axf

JavaScript Object Notation format (JSON) in row-major order
http://www.bom.gov.au/fwo/IDV60801/IDV60801.95833.json